Time;durP1;ratioP1;P1;durP2;ratioP2;P2;SDS_P1;SDS_P2;PMS_P1;PMS_P2;Temp;Humidity;BMP_temperature;BMP_pressure;BME280_temperature;BME280_humidity;BME280_pressure;Samples;Min_cycle;Max_cycle;Signal;HPM_P1;HPM_P2
2023/05/04 00:00:07;;;;;;;5.38;2.08;;;16.30;99.90;;;;;;5074058;28;20032;-68
2023/05/04 00:02:33;;;;;;;3.38;1.75;;;16.30;99.90;;;;;;5073690;28;20050;-68
2023/05/04 00:04:59;;;;;;;6.63;2.33;;;16.30;99.90;;;;;;5071702;28;20032;-68
2023/05/04 00:07:26;;;;;;;4.97;1.70;;;16.30;99.90;;;;;;5072850;28;20046;-69
2023/05/04 00:09:52;;;;;;;6.75;2.10;;;16.30;99.90;;;;;;5072887;28;20025;-68
2023/05/04 00:12:18;;;;;;;4.97;1.50;;;16.30;99.90;;;;;;5072882;28;20040;-68
2023/05/04 00:14:44;;;;;;;4.47;1.70;;;16.30;99.90;;;;;;5072829;28;20028;-68
2023/05/04 00:17:11;;;;;;;3.33;1.80;;;16.30;99.90;;;;;;5073020;28;20033;-68
2023/05/04 00:19:39;;;;;;;6.43;1.80;;;16.30;99.90;;;;;;5072936;28;20081;-67
2023/05/04 00:22:05;;;;;;;5.25;1.60;;;16.30;99.90;;;;;;5071093;28;20028;-69
2023/05/04 00:24:31;;;;;;;6.38;1.58;;;16.30;99.90;;;;;;5072428;28;20058;-69
2023/05/04 00:26:58;;;;;;;7.23;1.60;;;16.20;99.90;;;;;;5071019;28;20032;-68
2023/05/04 00:29:24;;;;;;;3.67;1.67;;;16.30;99.90;;;;;;5072731;28;20286;-70
2023/05/04 00:31:50;;;;;;;4.38;1.80;;;16.30;99.90;;;;;;5072346;28;20032;-68
2023/05/04 00:34:16;;;;;;;3.33;1.50;;;16.30;99.90;;;;;;5072522;28;20025;-69
2023/05/04 00:36:42;;;;;;;3.38;1.38;;;16.20;99.90;;;;;;5072665;28;20255;-69
2023/05/04 00:39:08;;;;;;;5.30;1.70;;;16.30;99.90;;;;;;5072119;28;20047;-68
2023/05/04 00:41:34;;;;;;;3.03;1.48;;;16.30;99.90;;;;;;5070833;28;20473;-69
2023/05/04 00:44:03;;;;;;;6.15;1.65;;;16.20;99.90;;;;;;5070706;28;20025;-68
2023/05/04 00:46:30;;;;;;;5.32;1.70;;;16.30;99.90;;;;;;5072025;28;20032;-69
2023/05/04 00:48:58;;;;;;;4.07;1.58;;;16.30;99.90;;;;;;5072274;28;20032;-69
2023/05/04 00:51:25;;;;;;;4.88;2.00;;;16.30;99.90;;;;;;5071862;28;20442;-69
2023/05/04 00:53:52;;;;;;;;;;;16.30;99.90;;;;;;5072169;28;20101;-70
2023/05/04 00:56:22;;;;;;;4.63;1.73;;;16.10;99.90;;;;;;5071578;28;19905;-70
2023/05/04 00:58:50;;;;;;;4.70;1.88;;;16.10;99.90;;;;;;5104506;28;20081;-69
2023/05/04 01:01:16;;;;;;;9.88;1.90;;;16.00;99.90;;;;;;5071767;28;20027;-70
2023/05/04 01:03:42;;;;;;;4.80;1.83;;;16.10;99.90;;;;;;5070411;28;20024;-70
2023/05/04 01:06:46;;;;;;;6.73;1.77;;;16.10;99.90;;;;;;5071625;28;20274;-69
2023/05/04 01:09:35;;;;;;;6.10;1.90;;;16.00;99.90;;;;;;5071907;28;20270;-70
2023/05/04 01:12:24;;;;;;;3.58;1.48;;;15.90;99.90;;;;;;5071839;28;20417;-69
2023/05/04 01:14:52;;;;;;;5.53;1.70;;;15.80;99.90;;;;;;5104053;28;20055;-70
2023/05/04 01:17:19;;;;;;;4.82;1.70;;;15.80;99.90;;;;;;5071590;28;20044;-70
2023/05/04 01:19:45;;;;;;;4.07;1.70;;;15.80;99.90;;;;;;5071561;28;20056;-70
2023/05/04 01:22:11;;;;;;;5.57;1.80;;;15.90;99.90;;;;;;5070211;28;20529;-70
2023/05/04 01:24:37;;;;;;;6.13;1.90;;;15.80;99.90;;;;;;5071447;28;20267;-70
2023/05/04 01:27:08;;;;;;;8.38;2.10;;;15.70;99.90;;;;;;5071706;28;20056;-70
2023/05/04 01:29:54;;;;;;;7.45;2.00;;;15.50;99.90;;;;;;5069915;28;20031;-69
2023/05/04 01:32:21;;;;;;;3.58;1.77;;;15.50;99.90;;;;;;5071424;28;20373;-70
2023/05/04 01:34:47;;;;;;;7.82;2.00;;;15.40;99.90;;;;;;5071409;28;20377;-69
2023/05/04 01:37:14;;;;;;;5.67;1.80;;;15.20;99.90;;;;;;5103587;28;20033;-70
2023/05/04 01:39:40;;;;;;;7.40;2.00;;;15.10;99.90;;;;;;5103555;28;20294;-70
2023/05/04 01:42:06;;;;;;;10.35;1.92;;;14.90;99.90;;;;;;5071527;28;20056;-70
2023/05/04 01:44:33;;;;;;;4.03;1.70;;;14.90;99.90;;;;;;5103454;28;20032;-70
2023/05/04 01:46:59;;;;;;;4.50;2.10;;;14.90;99.90;;;;;;5071233;28;20374;-70
2023/05/04 01:49:25;;;;;;;4.67;1.90;;;14.90;99.90;;;;;;5071284;28;20359;-69
2023/05/04 01:51:51;;;;;;;7.43;2.13;;;14.80;99.90;;;;;;5070899;28;20513;-70
2023/05/04 01:54:17;;;;;;;6.57;2.00;;;14.80;99.90;;;;;;5071213;28;20661;-69
2023/05/04 01:56:43;;;;;;;3.60;1.90;;;14.80;99.90;;;;;;5071015;28;20096;-69
2023/05/04 01:59:09;;;;;;;7.22;1.83;;;14.90;99.90;;;;;;5069673;28;20024;-70
2023/05/04 02:01:35;;;;;;;7.17;1.87;;;14.90;99.90;;;;;;5071469;28;20059;-69
2023/05/04 02:04:01;;;;;;;2.60;1.53;;;15.00;99.90;;;;;;5071063;28;20098;-69
2023/05/04 02:06:27;;;;;;;5.47;1.80;;;15.10;99.90;;;;;;5071129;28;20090;-70
2023/05/04 02:08:53;;;;;;;4.67;1.37;;;15.10;99.90;;;;;;5073701;28;20054;-70
2023/05/04 02:11:19;;;;;;;5.95;1.27;;;15.10;99.90;;;;;;5075281;28;20274;-70
2023/05/04 02:13:46;;;;;;;3.20;1.50;;;15.10;99.90;;;;;;5075111;28;20103;-65
2023/05/04 02:16:12;;;;;;;4.88;1.50;;;15.10;99.90;;;;;;5075242;28;20021;-70
2023/05/04 02:18:38;;;;;;;3.10;1.47;;;15.10;99.90;;;;;;5074299;28;20025;-70
2023/05/04 02:21:04;;;;;;;4.35;1.60;;;15.30;99.90;;;;;;5073431;28;20028;-69
2023/05/04 02:23:30;;;;;;;8.13;1.70;;;15.40;99.90;;;;;;5074924;28;20032;-70
2023/05/04 02:25:56;;;;;;;5.70;1.85;;;15.50;99.90;;;;;;5074730;28;20032;-70
2023/05/04 02:28:22;;;;;;;3.17;1.57;;;15.50;99.90;;;;;;5107143;28;20031;-70
2023/05/04 02:30:49;;;;;;;6.20;1.70;;;15.60;99.90;;;;;;5074203;28;20024;-69
2023/05/04 02:33:15;;;;;;;4.80;1.60;;;15.70;99.90;;;;;;5074102;28;20104;-70
2023/05/04 02:35:42;;;;;;;5.15;1.60;;;15.80;99.90;;;;;;5073995;28;20353;-69
2023/05/04 02:38:08;;;;;;;6.78;1.58;;;15.80;99.90;;;;;;5074419;28;20020;-69
2023/05/04 02:40:34;;;;;;;4.35;1.38;;;15.80;99.90;;;;;;5074078;28;20035;-69
2023/05/04 02:43:00;;;;;;;4.30;1.40;;;15.80;99.90;;;;;;5074650;28;20131;-70
2023/05/04 02:45:26;;;;;;;3.05;1.40;;;15.80;99.90;;;;;;5073217;28;20025;-70
2023/05/04 02:47:52;;;;;;;3.07;1.40;;;15.90;99.90;;;;;;5072869;28;20025;-70
2023/05/04 02:50:18;;;;;;;3.60;1.57;;;15.90;99.90;;;;;;5074275;28;20289;-70
2023/05/04 02:52:44;;;;;;;6.40;1.42;;;15.90;99.90;;;;;;5073926;28;20307;-71
2023/05/04 02:55:11;;;;;;;;;;;15.80;99.90;;;;;;5074109;28;20024;-71
2023/05/04 02:57:37;;;;;;;4.40;1.45;;;15.80;99.90;;;;;;5074556;28;19904;-70
2023/05/04 03:00:05;;;;;;;4.13;1.50;;;15.80;99.90;;;;;;5074810;28;20037;-70
2023/05/04 03:02:31;;;;;;;3.97;1.40;;;15.70;99.90;;;;;;5073973;28;20328;-70
2023/05/04 03:04:57;;;;;;;3.00;1.30;;;15.70;99.90;;;;;;5073975;28;20016;-69
2023/05/04 03:07:24;;;;;;;4.20;1.90;;;15.70;99.90;;;;;;5074804;28;20024;-70
2023/05/04 03:09:50;;;;;;;5.22;1.40;;;15.70;99.90;;;;;;5074793;28;20032;-70
2023/05/04 03:12:16;;;;;;;2.97;1.50;;;15.60;99.90;;;;;;5074630;28;20082;-70
2023/05/04 03:14:42;;;;;;;4.88;1.45;;;15.60;99.90;;;;;;5074646;28;20031;-70
2023/05/04 03:17:08;;;;;;;3.50;1.50;;;15.60;99.90;;;;;;5074749;28;20040;-70
2023/05/04 03:19:34;;;;;;;3.40;1.43;;;15.50;99.90;;;;;;5073625;28;20474;-69
2023/05/04 03:22:01;;;;;;;;;;;15.50;99.90;;;;;;5074463;28;20266;-69
2023/05/04 03:24:27;;;;;;;3.65;1.40;;;15.50;99.90;;;;;;5072895;28;19904;-69
2023/05/04 03:26:54;;;;;;;2.28;1.30;;;15.40;99.90;;;;;;5074893;28;20021;-70
2023/05/04 03:29:20;;;;;;;8.57;1.73;;;15.30;99.90;;;;;;5074878;28;20039;-70
2023/05/04 03:31:46;;;;;;;5.63;1.80;;;15.30;99.90;;;;;;5074731;28;20029;-72
2023/05/04 03:34:13;;;;;;;4.40;1.42;;;15.40;99.90;;;;;;5074221;28;20353;-70
2023/05/04 03:36:41;;;;;;;4.55;1.58;;;15.50;99.90;;;;;;5073538;28;20020;-70
2023/05/04 03:39:07;;;;;;;3.25;1.73;;;15.50;99.90;;;;;;5073981;28;20024;-70
2023/05/04 03:41:33;;;;;;;4.57;1.70;;;15.50;99.90;;;;;;5074245;28;20093;-70
2023/05/04 03:43:59;;;;;;;4.17;1.83;;;15.50;99.90;;;;;;5074209;28;20336;-70
2023/05/04 03:46:25;;;;;;;5.43;1.97;;;15.50;99.90;;;;;;5072875;28;20484;-70
2023/05/04 03:48:51;;;;;;;3.90;1.60;;;15.60;99.90;;;;;;5072666;28;20039;-70
2023/05/04 03:51:17;;;;;;;5.40;1.90;;;15.50;99.90;;;;;;5073954;28;20373;-70
2023/05/04 03:53:43;;;;;;;5.32;1.73;;;15.50;99.90;;;;;;5074034;28;20063;-71
2023/05/04 03:56:10;;;;;;;5.20;1.73;;;15.50;99.90;;;;;;5073813;28;20033;-70
2023/05/04 03:58:36;;;;;;;3.35;1.60;;;15.10;99.90;;;;;;5072669;28;20281;-70
2023/05/04 04:01:02;;;;;;;3.30;1.60;;;14.80;99.90;;;;;;5072722;28;20082;-70
2023/05/04 04:03:29;;;;;;;5.40;1.90;;;14.70;99.90;;;;;;5072295;28;20488;-70
2023/05/04 04:05:56;;;;;;;12.20;2.08;;;14.70;99.90;;;;;;5074250;28;20032;-70
2023/05/04 04:08:22;;;;;;;6.53;2.00;;;14.60;99.90;;;;;;5073714;28;20166;-70
2023/05/04 04:10:48;;;;;;;6.63;2.63;;;14.60;99.90;;;;;;5073550;28;20036;-70
2023/05/04 04:13:14;;;;;;;5.70;2.00;;;14.60;99.90;;;;;;5073698;28;20443;-71
2023/05/04 04:15:43;;;;;;;9.27;1.80;;;14.50;99.90;;;;;;5073727;28;20028;-71
2023/05/04 04:18:10;;;;;;;6.18;1.83;;;14.50;99.90;;;;;;5074747;28;20048;-71
2023/05/04 04:20:36;;;;;;;6.35;1.90;;;14.60;99.90;;;;;;5074627;28;20108;-70
2023/05/04 04:23:03;;;;;;;5.10;2.15;;;14.60;99.90;;;;;;5074393;28;20062;-70
2023/05/04 04:25:30;;;;;;;17.75;2.40;;;14.70;99.90;;;;;;5073967;28;20024;-70
2023/05/04 04:27:56;;;;;;;10.50;2.10;;;14.70;99.90;;;;;;5074238;28;20032;-70
2023/05/04 04:30:22;;;;;;;7.63;2.63;;;14.80;99.90;;;;;;5072600;28;20036;-70
2023/05/04 04:32:48;;;;;;;7.33;2.50;;;14.90;99.90;;;;;;5073261;28;20036;-70
2023/05/04 04:35:15;;;;;;;7.10;2.00;;;15.00;99.90;;;;;;5073922;28;20269;-70
2023/05/04 04:37:41;;;;;;;6.55;1.90;;;14.90;99.90;;;;;;5072684;28;20271;-70
2023/05/04 04:40:07;;;;;;;8.20;1.90;;;15.00;99.90;;;;;;5073760;28;20503;-70
2023/05/04 04:42:34;;;;;;;8.57;1.95;;;15.10;99.90;;;;;;5073538;28;20267;-70
2023/05/04 04:45:04;;;;;;;7.70;1.50;;;15.20;99.90;;;;;;5073362;28;20467;-70
2023/05/04 04:47:31;;;;;;;5.20;1.67;;;15.30;99.90;;;;;;5073299;28;20453;-70
2023/05/04 04:49:57;;;;;;;9.98;2.03;;;15.40;99.90;;;;;;5072025;28;20028;-70
2023/05/04 04:52:23;;;;;;;6.50;1.65;;;15.50;99.90;;;;;;5079865;28;20090;-70
2023/05/04 04:54:50;;;;;;;6.72;2.00;;;15.60;99.90;;;;;;5093758;28;20077;-71
2023/05/04 04:57:16;;;;;;;5.47;1.50;;;15.60;99.90;;;;;;5093570;28;20020;-70
2023/05/04 04:59:42;;;;;;;7.75;1.50;;;15.70;99.90;;;;;;5093515;28;20060;-71
2023/05/04 05:02:08;;;;;;;6.07;1.63;;;15.80;99.90;;;;;;5093450;28;20035;-72
2023/05/04 05:04:38;;;;;;;2.90;1.27;;;15.90;99.90;;;;;;5092046;28;20344;-70
2023/05/04 05:07:04;;;;;;;3.83;1.40;;;16.00;99.90;;;;;;5091346;28;20023;-78
2023/05/04 05:09:30;;;;;;;4.30;1.60;;;16.00;99.90;;;;;;5091847;28;20042;-80
2023/05/04 05:11:56;;;;;;;7.60;2.00;;;16.70;99.90;;;;;;5093097;28;20441;-81
2023/05/04 05:14:30;;;;;;;5.57;1.40;;;18.90;99.90;;;;;;5091882;28;20020;-79
2023/05/04 05:16:57;;;;;;;4.35;1.20;;;21.60;99.90;;;;;;5091521;28;20031;-79
2023/05/04 05:19:29;;;;;;;;;;;23.70;99.90;;;;;;5093765;28;20022;-78
2023/05/04 05:21:55;;;;;;;6.75;1.40;;;25.40;99.90;;;;;;5088507;28;20510;-79
2023/05/04 05:24:24;;;;;;;6.30;1.52;;;26.70;99.90;;;;;;5072327;28;20052;-77
2023/05/04 05:26:52;;;;;;;2.53;0.85;;;27.50;99.90;;;;;;5071599;28;20024;-78
2023/05/04 05:29:18;;;;;;;5.15;1.15;;;28.10;99.90;;;;;;5072248;28;20016;-77
2023/05/04 05:31:44;;;;;;;3.72;1.10;;;27.00;99.90;;;;;;5072295;28;20035;-78
2023/05/04 05:34:10;;;;;;;2.90;1.10;;;28.50;99.90;;;;;;5071858;28;20060;-76
2023/05/04 05:36:36;;;;;;;4.38;1.08;;;28.90;99.90;;;;;;5072103;28;20453;-79
2023/05/04 05:41:15;;;;;;;5.78;1.20;;;28.30;99.90;;;;;;5132605;27;20121;-67
2023/05/04 05:43:41;;;;;;;32.17;3.10;;;29.10;99.90;;;;;;5089594;28;20038;-72
2023/05/04 05:46:07;;;;;;;;;;;29.40;99.90;;;;;;5088115;28;20360;-67
2023/05/04 05:48:33;;;;;;;3.47;1.00;;;28.10;99.90;;;;;;5089740;28;19999;-85
2023/05/04 05:50:59;;;;;;;4.57;1.05;;;28.90;99.90;;;;;;5090151;28;20024;-83
2023/05/04 05:53:34;;;;;;;3.72;1.10;;;28.90;99.90;;;;;;5089557;28;20043;-84
2023/05/04 05:56:01;;;;;;;6.57;1.50;;;28.30;99.90;;;;;;5087804;28;20105;-81
2023/05/04 05:58:27;;;;;;;4.28;0.95;;;28.20;99.90;;;;;;5089243;28;20032;-80
2023/05/04 06:00:56;;;;;;;7.63;1.08;;;28.50;99.90;;;;;;5088072;28;20032;-81
2023/05/04 06:03:22;;;;;;;4.53;1.27;;;29.10;99.90;;;;;;5088814;28;20475;-80
2023/05/04 06:05:48;;;;;;;;;;;29.30;99.90;;;;;;5088315;28;20028;-81
2023/05/04 06:08:14;;;;;;;6.15;1.17;;;31.10;99.90;;;;;;5089283;28;19984;-80
2023/05/04 06:10:59;;;;;;;;;;;30.50;99.90;;;;;;5089281;28;20492;-81
2023/05/04 06:13:25;;;;;;;4.53;1.05;;;27.60;99.90;;;;;;5104749;28;20337;-80
2023/05/04 06:15:52;;;;;;;3.67;1.08;;;27.90;99.90;;;;;;5089008;28;20016;-81
2023/05/04 06:18:20;;;;;;;6.38;1.30;;;28.50;99.90;;;;;;5089168;28;20330;-81
2023/05/04 06:20:46;;;;;;;4.28;1.08;;;28.70;99.90;;;;;;5088911;28;20038;-80
2023/05/04 06:23:15;;;;;;;9.35;1.20;;;29.30;99.90;;;;;;5088916;28;20020;-80
2023/05/04 06:25:41;;;;;;;7.45;1.15;;;30.40;99.90;;;;;;5088524;28;20104;-80
2023/05/04 06:28:07;;;;;;;6.40;1.08;;;30.80;99.90;;;;;;5088983;28;20103;-81
2023/05/04 06:30:33;;;;;;;5.15;1.00;;;30.80;99.90;;;;;;5088838;28;20028;-82
2023/05/04 06:33:00;;;;;;;5.53;1.10;;;30.30;99.90;;;;;;5104388;28;20469;-80
2023/05/04 06:35:29;;;;;;;3.20;0.90;;;30.60;99.90;;;;;;5104598;28;20031;-80
2023/05/04 06:38:01;;;;;;;4.68;0.88;;;30.70;99.90;;;;;;5088936;28;20028;-82
2023/05/04 06:40:27;;;;;;;4.80;1.25;;;30.20;99.90;;;;;;5088530;28;20048;-80
2023/05/04 06:42:59;;;;;;;4.28;1.02;;;28.90;99.90;;;;;;5088558;28;20024;-81
2023/05/04 06:45:25;;;;;;;3.63;1.05;;;29.60;99.90;;;;;;5088844;28;20424;-80
2023/05/04 06:47:51;;;;;;;;;;;28.40;99.90;;;;;;5089449;28;20468;-79
2023/05/04 06:50:17;;;;;;;3.45;0.88;;;29.10;99.90;;;;;;5088326;28;19965;-79
2023/05/04 06:52:44;;;;;;;;;;;28.80;99.90;;;;;;5090049;28;20171;-79
2023/05/04 06:55:10;;;;;;;3.63;1.10;;;29.00;99.90;;;;;;5090741;28;19949;-80
2023/05/04 06:57:36;;;;;;;5.57;1.08;;;28.60;99.90;;;;;;5075001;28;20495;-79
2023/05/04 07:00:03;;;;;;;;;;;29.60;99.90;;;;;;5075624;28;20369;-77
2023/05/04 07:02:29;;;;;;;8.68;1.00;;;29.70;99.90;;;;;;5074728;28;20426;-78
2023/05/04 07:04:57;;;;;;;3.97;0.93;;;30.30;99.90;;;;;;5074848;28;20094;-77
2023/05/04 07:07:23;;;;;;;3.25;1.10;;;31.10;99.90;;;;;;5073051;28;20447;-77
2023/05/04 07:09:49;;;;;;;3.20;0.85;;;32.00;99.90;;;;;;5074124;28;20453;-83
2023/05/04 07:12:15;;;;;;;7.97;1.20;;;30.50;99.90;;;;;;5074647;28;20039;-78
2023/05/04 07:14:41;;;;;;;6.03;1.10;;;30.60;99.90;;;;;;5074895;28;20024;-79
2023/05/04 07:17:09;;;;;;;4.82;1.10;;;31.80;99.90;;;;;;5074309;28;20024;-78
2023/05/04 07:19:35;;;;;;;3.85;0.90;;;32.30;99.90;;;;;;5090445;28;20039;-79
2023/05/04 07:22:02;;;;;;;3.40;1.00;;;30.90;99.90;;;;;;5074836;28;20024;-77
2023/05/04 07:24:31;;;;;;;4.95;1.10;;;30.50;99.90;;;;;;5074872;28;20017;-75
2023/05/04 07:26:57;;;;;;;2.50;0.90;;;29.10;99.90;;;;;;5074227;28;20480;-76
2023/05/04 07:29:23;;;;;;;5.82;1.50;;;28.50;99.90;;;;;;5077275;28;20048;-75
2023/05/04 07:31:49;;;;;;;5.15;1.10;;;28.20;99.90;;;;;;5089881;28;20021;-76
2023/05/04 07:34:16;;;;;;;4.32;1.00;;;27.50;99.90;;;;;;5074208;28;20036;-76
2023/05/04 07:36:42;;;;;;;4.13;0.93;;;26.40;99.90;;;;;;5074268;28;20481;-75
2023/05/04 07:39:08;;;;;;;4.38;1.08;;;25.20;99.90;;;;;;5089469;28;20122;-75
2023/05/04 07:41:35;;;;;;;4.63;0.90;;;24.50;99.90;;;;;;5089176;28;20108;-75
2023/05/04 07:44:04;;;;;;;4.32;0.90;;;24.80;99.90;;;;;;5073504;28;20413;-77
2023/05/04 07:46:30;;;;;;;3.95;1.00;;;24.60;99.90;;;;;;5073694;28;20047;-77
2023/05/04 07:48:56;;;;;;;4.63;0.90;;;24.40;99.90;;;;;;5074013;28;20031;-75
2023/05/04 07:51:22;;;;;;;4.95;0.98;;;23.90;99.90;;;;;;5072884;28;20021;-75
2023/05/04 07:53:48;;;;;;;3.40;0.90;;;23.70;99.90;;;;;;5073179;28;20039;-76
2023/05/04 07:56:14;;;;;;;2.78;1.10;;;23.80;99.90;;;;;;5072666;28;20474;-76
2023/05/04 07:58:40;;;;;;;3.83;1.00;;;24.40;99.90;;;;;;5072724;28;20483;-77
2023/05/04 08:01:07;;;;;;;4.20;1.17;;;24.20;99.90;;;;;;5088270;28;20109;-77
2023/05/04 08:03:33;;;;;;;3.55;1.17;;;24.30;99.90;;;;;;5071526;28;20029;-76
2023/05/04 08:05:59;;;;;;;4.25;1.02;;;24.60;99.90;;;;;;5071313;28;20482;-75
2023/05/04 08:08:25;;;;;;;3.63;1.23;;;23.70;99.90;;;;;;5073105;28;20040;-74
2023/05/04 08:10:52;;;;;;;2.67;0.90;;;24.20;99.90;;;;;;5088022;28;20027;-77
2023/05/04 08:13:18;;;;;;;6.53;0.90;;;24.60;99.90;;;;;;5072973;28;20038;-75
2023/05/04 08:15:44;;;;;;;3.13;0.90;;;23.90;99.90;;;;;;5072793;28;20028;-76
2023/05/04 08:18:10;;;;;;;3.78;1.00;;;23.40;99.90;;;;;;5072918;28;20028;-76
2023/05/04 08:20:37;;;;;;;4.70;1.30;;;23.00;99.90;;;;;;5073407;28;20036;-76
2023/05/04 08:23:03;;;;;;;2.70;0.98;;;23.50;99.90;;;;;;5071681;28;20032;-77
2023/05/04 08:25:30;;;;;;;3.88;0.90;;;23.80;99.90;;;;;;5072792;28;20421;-75
2023/05/04 08:27:56;;;;;;;4.68;1.00;;;24.70;99.90;;;;;;5073309;28;20479;-77
2023/05/04 08:30:22;;;;;;;4.07;1.00;;;24.80;99.90;;;;;;5073263;28;20082;-77
2023/05/04 08:32:54;;;;;;;3.70;0.90;;;24.10;99.90;;;;;;5072910;28;20032;-77
2023/05/04 08:35:24;;;;;;;2.67;1.00;;;24.20;99.90;;;;;;5072704;28;20067;-76
2023/05/04 08:37:51;;;;;;;2.60;0.90;;;23.60;99.90;;;;;;5071195;28;20028;-77
2023/05/04 08:40:18;;;;;;;2.55;1.00;;;23.70;99.90;;;;;;5087377;28;20074;-75
2023/05/04 08:42:46;;;;;;;5.45;1.60;;;24.10;99.90;;;;;;5087939;28;20024;-77
2023/05/04 08:45:15;;;;;;;3.10;1.00;;;24.70;99.90;;;;;;5072384;28;20146;-76
2023/05/04 08:47:42;;;;;;;6.20;1.55;;;23.80;99.90;;;;;;5072278;28;20095;-76
2023/05/04 08:50:09;;;;;;;5.40;1.60;;;24.30;99.90;;;;;;5070965;28;20483;-77
2023/05/04 08:52:45;;;;;;;6.13;1.33;;;24.50;99.90;;;;;;5071794;28;20108;-76
2023/05/04 08:55:11;;;;;;;7.43;1.27;;;24.50;99.90;;;;;;5071732;28;20040;-76
2023/05/04 08:57:41;;;;;;;4.60;1.40;;;25.10;99.90;;;;;;5087613;28;20021;-77
2023/05/04 09:00:10;;;;;;;5.78;1.50;;;25.60;99.90;;;;;;5071589;28;20091;-75
2023/05/04 09:02:36;;;;;;;4.85;1.05;;;25.70;99.90;;;;;;5071773;28;20564;-75
2023/05/04 09:05:06;;;;;;;3.55;1.02;;;23.60;99.90;;;;;;5071462;28;20036;-76
2023/05/04 09:07:32;;;;;;;7.22;1.70;;;23.50;99.90;;;;;;5071408;28;20016;-76
2023/05/04 09:09:59;;;;;;;4.22;1.00;;;24.20;99.90;;;;;;5071837;28;20028;-75
2023/05/04 09:12:26;;;;;;;2.80;0.93;;;24.70;99.90;;;;;;5086687;28;20024;-75
2023/05/04 09:14:52;;;;;;;3.00;1.20;;;25.00;99.90;;;;;;5070862;28;20109;-75
2023/05/04 09:17:28;;;;;;;3.85;1.00;;;25.00;99.90;;;;;;5071206;28;20043;-74
2023/05/04 09:20:01;;;;;;;2.83;0.98;;;24.50;99.90;;;;;;5071371;28;20368;-75
2023/05/04 09:22:29;;;;;;;4.35;1.30;;;23.00;99.90;;;;;;5086590;28;20058;-75
2023/05/04 09:25:12;;;;;;;3.42;1.40;;;23.70;99.90;;;;;;5086669;28;20555;-75
2023/05/04 09:27:42;;;;;;;3.53;0.82;;;24.30;99.90;;;;;;5071494;28;20036;-75
2023/05/04 09:30:08;;;;;;;4.22;1.00;;;23.20;99.90;;;;;;5070963;28;20040;-75
2023/05/04 09:32:47;;;;;;;;;;;23.40;99.90;;;;;;5086729;28;20021;-75
2023/05/04 09:35:15;;;;;;;5.10;0.90;;;23.70;99.90;;;;;;5070996;28;19905;-76
2023/05/04 09:37:45;;;;;;;3.10;1.00;;;22.80;99.90;;;;;;5069318;28;20431;-76
2023/05/04 09:40:13;;;;;;;4.00;1.00;;;23.20;99.90;;;;;;5070212;28;20052;-76
2023/05/04 09:42:39;;;;;;;2.58;0.80;;;23.50;99.90;;;;;;5069529;28;20102;-75
2023/05/04 09:45:06;;;;;;;;;;;24.10;99.90;;;;;;5071664;28;20028;-78
2023/05/04 09:47:39;;;;;;;2.03;0.80;;;23.70;99.90;;;;;;5070809;28;19905;-78
2023/05/04 09:50:20;;;;;;;3.17;1.02;;;23.60;99.90;;;;;;5069878;28;20322;-77
2023/05/04 09:52:47;;;;;;;3.58;0.80;;;23.40;99.90;;;;;;5071135;28;20020;-75
2023/05/04 09:55:15;;;;;;;4.88;0.75;;;23.50;99.90;;;;;;5071033;28;20129;-77
2023/05/04 09:57:44;;;;;;;3.88;1.20;;;23.80;99.90;;;;;;5069353;28;20028;-77
2023/05/04 10:00:12;;;;;;;6.22;1.98;;;24.60;99.90;;;;;;5070537;28;20064;-76
2023/05/04 10:02:39;;;;;;;5.05;1.70;;;25.20;99.90;;;;;;5072124;28;20024;-76
2023/05/04 10:05:10;;;;;;;6.15;1.85;;;24.20;99.90;;;;;;5072205;28;20040;-71
2023/05/04 10:07:37;;;;;;;2.25;0.90;;;24.60;99.90;;;;;;5071111;28;20485;-77
2023/05/04 10:10:05;;;;;;;4.60;0.90;;;25.00;99.90;;;;;;5071447;28;20460;-76
2023/05/04 10:12:31;;;;;;;2.42;0.93;;;24.50;99.90;;;;;;5086235;28;20012;-75
2023/05/04 10:14:57;;;;;;;5.82;1.10;;;24.50;99.90;;;;;;5070497;28;20028;-74
2023/05/04 10:17:34;;;;;;;2.42;0.90;;;24.20;99.90;;;;;;5071055;28;20032;-79
2023/05/04 10:20:27;;;;;;;1.95;0.98;;;24.10;99.90;;;;;;5070660;28;20183;-76
2023/05/04 10:23:15;;;;;;;3.97;1.25;;;24.20;99.90;;;;;;5071418;28;20016;-75
2023/05/04 10:25:53;;;;;;;1.48;0.70;;;24.30;99.90;;;;;;5071664;28;20025;-76
2023/05/04 10:28:25;;;;;;;4.75;1.45;;;24.10;99.90;;;;;;5090464;28;20025;-77
2023/05/04 10:30:58;;;;;;;3.67;0.90;;;24.00;99.90;;;;;;5075409;28;20028;-76
2023/05/04 10:33:25;;;;;;;3.92;0.90;;;23.80;99.90;;;;;;5073369;28;20067;-77
2023/05/04 10:35:52;;;;;;;2.03;0.85;;;23.90;99.90;;;;;;5074917;28;20028;-75
2023/05/04 10:38:19;;;;;;;2.08;0.82;;;23.70;99.90;;;;;;5074878;28;20437;-76
2023/05/04 10:40:47;;;;;;;3.95;0.90;;;23.60;99.90;;;;;;5074746;28;20095;-73
2023/05/04 10:43:22;;;;;;;3.33;1.27;;;23.30;99.90;;;;;;5074670;28;20068;-78
2023/05/04 10:45:49;;;;;;;3.92;1.35;;;23.30;99.90;;;;;;5075111;28;20021;-76
2023/05/04 10:48:18;;;;;;;5.38;1.90;;;23.70;99.90;;;;;;5075689;28;20090;-77
2023/05/04 10:50:50;;;;;;;4.55;1.25;;;24.10;99.90;;;;;;5074907;28;20137;-77
2023/05/04 10:53:17;;;;;;;5.35;1.10;;;24.10;99.90;;;;;;5074481;28;20029;-77
2023/05/04 10:55:46;;;;;;;4.15;1.25;;;23.90;99.90;;;;;;5074234;28;20020;-75
2023/05/04 10:58:15;;;;;;;6.60;1.85;;;23.90;99.90;;;;;;5074684;28;20021;-76
2023/05/04 11:00:46;;;;;;;12.00;2.10;;;23.90;99.90;;;;;;5074546;28;20029;-75
2023/05/04 11:03:13;;;;;;;6.13;2.00;;;24.00;99.90;;;;;;5073732;28;20025;-75
2023/05/04 11:05:44;;;;;;;7.70;1.98;;;24.20;99.90;;;;;;5072444;28;20028;-78
2023/05/04 11:08:24;;;;;;;4.03;1.40;;;24.30;99.90;;;;;;5074474;28;20025;-76
2023/05/04 11:11:05;;;;;;;6.75;1.85;;;24.30;99.90;;;;;;5074004;28;20029;-76
2023/05/04 11:13:45;;;;;;;5.43;1.85;;;24.30;99.90;;;;;;5074074;28;20017;-77
2023/05/04 11:16:12;;;;;;;7.38;1.88;;;24.50;99.90;;;;;;5074401;28;20416;-77
2023/05/04 11:18:40;;;;;;;6.82;1.77;;;23.60;99.90;;;;;;5073908;28;20464;-77
2023/05/04 11:21:10;;;;;;;3.65;1.23;;;23.10;99.90;;;;;;5074305;28;20082;-76
2023/05/04 11:23:37;;;;;;;5.25;1.73;;;23.00;99.90;;;;;;5074726;28;20029;-77
2023/05/04 11:26:11;;;;;;;7.15;1.65;;;23.10;99.90;;;;;;5074516;28;20032;-77
2023/05/04 11:28:38;;;;;;;7.30;2.40;;;23.40;99.90;;;;;;5074772;28;20024;-77
2023/05/04 11:31:14;;;;;;;7.80;1.90;;;23.70;99.90;;;;;;5089475;28;20445;-77
2023/05/04 11:33:59;;;;;;;8.48;1.58;;;23.70;99.90;;;;;;5072365;28;20112;-77
2023/05/04 11:36:25;;;;;;;9.32;1.90;;;23.50;99.90;;;;;;5073997;28;20112;-78
2023/05/04 11:38:55;;;;;;;6.70;1.80;;;23.40;99.90;;;;;;5073592;28;20060;-77
2023/05/04 11:41:25;;;;;;;6.78;1.80;;;23.90;99.90;;;;;;5073641;28;20100;-76
2023/05/04 11:43:51;;;;;;;5.38;2.00;;;24.30;99.90;;;;;;5074021;28;20079;-78
2023/05/04 11:46:18;;;;;;;4.07;1.70;;;24.80;99.90;;;;;;5072564;28;20449;-78
2023/05/04 11:48:44;;;;;;;;;;;25.30;99.90;;;;;;5074360;28;20024;-79
2023/05/04 11:51:10;;;;;;;8.93;1.58;;;25.40;99.90;;;;;;5074194;28;20006;-79
2023/05/04 11:53:40;;;;;;;10.10;2.10;;;24.90;99.90;;;;;;5076749;28;20024;-79
2023/05/04 11:56:08;;;;;;;5.80;1.50;;;24.90;99.90;;;;;;5073367;28;20029;-78
2023/05/04 11:58:35;;;;;;;7.53;1.73;;;25.30;99.90;;;;;;5073624;28;20103;-75
2023/05/04 12:01:02;;;;;;;8.45;1.52;;;25.70;99.90;;;;;;5073764;28;20059;-82
2023/05/04 12:03:33;;;;;;;8.55;1.55;;;26.00;99.90;;;;;;5089397;28;20134;-79
2023/05/04 12:06:01;;;;;;;8.95;1.73;;;25.60;99.90;;;;;;5074206;28;20028;-83
2023/05/04 12:08:30;;;;;;;8.77;1.70;;;25.70;99.90;;;;;;5073652;28;20017;-83
2023/05/04 12:11:24;;;;;;;4.85;1.25;;;25.70;99.90;;;;;;5073909;28;20020;-81
2023/05/04 12:14:27;;;;;;;5.97;1.38;;;25.80;99.90;;;;;;5074038;28;20115;-82
2023/05/04 12:17:00;;;;;;;7.15;1.73;;;26.10;99.90;;;;;;5073769;28;20033;-84
2023/05/04 12:19:26;;;;;;;8.18;1.52;;;26.00;99.90;;;;;;5072580;28;20135;-83
2023/05/04 12:21:53;;;;;;;8.13;1.65;;;26.20;99.90;;;;;;5089694;28;20089;-82
2023/05/04 12:24:23;;;;;;;7.72;1.55;;;26.20;99.90;;;;;;5073798;28;20477;-84
2023/05/04 12:26:50;;;;;;;7.80;1.67;;;26.10;99.90;;;;;;5072711;28;20124;-80
2023/05/04 12:29:16;;;;;;;9.00;1.70;;;25.80;99.90;;;;;;5074058;28;20085;-83
2023/05/04 12:31:42;;;;;;;;;;;25.80;99.90;;;;;;5074409;28;20024;-81
2023/05/04 12:34:08;;;;;;;;;;;25.70;99.90;;;;;;5074259;28;19966;-82
2023/05/04 12:36:34;;;;;;;5.38;1.73;;;25.90;99.90;;;;;;5073916;28;19911;-81
2023/05/04 12:39:00;;;;;;;6.88;1.83;;;25.90;99.90;;;;;;5088738;28;20484;-81
2023/05/04 12:41:27;;;;;;;9.27;2.10;;;26.10;99.90;;;;;;5088827;28;20055;-82
2023/05/04 12:43:53;;;;;;;10.05;2.00;;;25.80;99.90;;;;;;5073635;28;20020;-79
2023/05/04 12:46:21;;;;;;;6.05;1.80;;;25.90;99.90;;;;;;5073768;28;20029;-79
2023/05/04 12:48:47;;;;;;;8.57;2.08;;;25.70;99.90;;;;;;5072437;28;20024;-80
2023/05/04 12:51:13;;;;;;;8.40;2.28;;;25.40;99.90;;;;;;5072995;28;20024;-79
2023/05/04 12:53:40;;;;;;;13.95;1.95;;;25.20;99.90;;;;;;5073509;28;20111;-83
2023/05/04 12:56:06;;;;;;;7.00;2.17;;;25.20;99.90;;;;;;5073260;28;20032;-85